createdAt,value
2023-01-29T08:54:19.629Z,17.65
2023-01-29T08:56:47.404Z,18.58
2023-01-29T08:59:15.669Z,18.00
2023-01-29T09:02:03.648Z,17.38
2023-01-29T09:04:31.395Z,19.05
2023-01-29T09:10:28.949Z,17.58
2023-01-29T09:12:56.769Z,17.85
2023-01-29T09:15:24.757Z,15.98
2023-01-29T09:17:52.517Z,17.73
2023-01-29T09:20:20.599Z,16.17
2023-01-29T09:22:49.371Z,16.83
2023-01-29T09:25:17.768Z,16.58
2023-01-29T09:27:47.067Z,16.75
2023-01-29T09:30:15.132Z,16.80
2023-01-29T09:32:53.294Z,16.25
2023-01-29T09:35:21.849Z,16.58
2023-01-29T09:37:49.659Z,16.65
2023-01-29T09:40:22.809Z,16.35
2023-01-29T09:42:56.243Z,15.70
2023-01-29T09:45:25.655Z,16.58
2023-01-29T09:47:54.751Z,15.77
2023-01-29T09:50:25.237Z,16.40
2023-01-29T09:52:54.169Z,15.93
2023-01-29T09:55:24.112Z,15.13
2023-01-29T09:57:54.378Z,15.80
2023-01-29T10:00:25.396Z,16.35
2023-01-29T10:03:10.206Z,15.25
2023-01-29T10:11:26.318Z,14.93
2023-01-29T10:14:02.787Z,15.48
2023-01-29T10:16:36.424Z,14.25
2023-01-29T10:19:12.282Z,14.68
2023-01-29T10:21:55.114Z,15.98
2023-01-29T10:24:27.017Z,13.65
2023-01-29T10:26:55.253Z,16.15
2023-01-29T10:29:25.027Z,14.45
2023-01-29T10:31:55.219Z,14.50
2023-01-29T10:34:27.016Z,14.73
2023-01-29T10:36:56.304Z,13.90
2023-01-29T10:39:25.538Z,15.32
2023-01-29T10:42:03.009Z,14.95
2023-01-29T10:44:36.895Z,15.60
2023-01-29T10:47:17.433Z,16.50
2023-01-29T10:50:00.163Z,16.00
2023-01-29T10:52:35.569Z,17.85
2023-01-29T10:55:07.653Z,15.07
2023-01-29T10:57:43.609Z,15.32
2023-01-29T11:00:18.373Z,15.30
2023-01-29T11:02:48.311Z,15.23
2023-01-29T11:05:20.535Z,15.88
2023-01-29T11:07:49.359Z,14.30
2023-01-29T11:10:22.137Z,15.43
2023-01-29T11:12:51.289Z,14.57
2023-01-29T11:15:22.435Z,15.35
2023-01-29T11:18:03.467Z,14.57
2023-01-29T11:20:32.011Z,14.07
2023-01-29T11:23:00.406Z,15.38
2023-01-29T11:25:29.836Z,13.93
2023-01-29T11:28:00.549Z,13.45
2023-01-29T11:30:31.496Z,12.98
2023-01-29T11:33:06.742Z,12.00
2023-01-29T11:35:36.556Z,12.00
2023-01-29T11:38:18.456Z,11.02
2023-01-29T11:40:46.363Z,11.98
2023-01-29T11:43:19.250Z,11.82
2023-01-29T11:48:18.051Z,10.68
2023-01-29T11:50:51.883Z,11.05
2023-01-29T11:53:24.575Z,12.70
2023-01-29T11:55:52.879Z,11.38
2023-01-29T11:58:22.387Z,12.25
2023-01-29T12:00:51.999Z,11.75
2023-01-29T12:03:24.997Z,13.20
2023-01-29T12:05:58.014Z,11.43
2023-01-29T12:11:07.912Z,12.02
2023-01-29T12:13:36.174Z,13.50
2023-01-29T12:16:08.313Z,11.40
2023-01-29T12:18:40.986Z,11.43
2023-01-29T12:21:13.114Z,11.88
2023-01-29T12:23:43.132Z,15.68
2023-01-29T12:26:16.050Z,12.93
2023-01-29T12:28:49.706Z,12.25
2023-01-29T12:31:24.025Z,11.90
2023-01-29T12:33:56.880Z,12.70
2023-01-29T12:36:26.977Z,12.20
2023-01-29T12:38:55.563Z,12.98
2023-01-29T12:41:30.044Z,13.43
2023-01-29T12:44:00.277Z,11.85
2023-01-29T12:46:29.486Z,10.98
2023-01-29T12:49:00.207Z,10.45
2023-01-29T12:51:30.824Z,12.73
2023-01-29T12:54:01.275Z,13.57
2023-01-29T12:56:31.881Z,12.63
2023-01-29T12:59:01.380Z,10.68
2023-01-29T13:01:31.627Z,12.85
2023-01-29T13:04:03.852Z,12.05
2023-01-29T13:06:33.836Z,11.40
2023-01-29T13:09:03.222Z,11.15
2023-01-29T13:11:34.872Z,10.65
2023-01-29T13:14:05.045Z,10.43
2023-01-29T13:16:36.735Z,12.75
2023-01-29T13:19:07.640Z,12.75
2023-01-29T13:21:38.366Z,13.15
2023-01-29T13:24:10.744Z,11.90
2023-01-29T13:26:38.741Z,12.90
2023-01-29T13:29:06.812Z,12.20
2023-01-29T13:31:35.911Z,11.77
2023-01-29T13:34:08.444Z,12.05
2023-01-29T13:36:38.193Z,10.55
2023-01-29T13:39:07.085Z,10.77
2023-01-29T13:41:36.538Z,10.98
2023-01-29T13:44:07.574Z,11.63
2023-01-29T13:46:35.378Z,11.70
2023-01-29T13:49:04.988Z,11.45
2023-01-29T13:51:37.607Z,12.15
2023-01-29T13:54:07.601Z,13.48
2023-01-29T13:56:44.120Z,13.65
2023-01-29T13:59:22.763Z,12.13
2023-01-29T14:02:20.200Z,11.20
2023-01-29T14:04:47.984Z,11.25
2023-01-29T14:10:18.902Z,13.43
2023-01-29T14:12:51.536Z,12.07
2023-01-29T14:15:24.275Z,12.15
2023-01-29T14:20:22.331Z,12.55
2023-01-29T14:22:55.709Z,11.75
2023-01-29T14:25:29.221Z,12.32
2023-01-29T14:27:57.714Z,11.65
2023-01-29T14:30:26.743Z,11.80
2023-01-29T14:32:55.564Z,12.45
2023-01-29T14:35:24.460Z,12.57
2023-01-29T14:37:53.841Z,11.48
2023-01-29T14:40:23.406Z,11.32
2023-01-29T14:42:57.545Z,12.20
2023-01-29T14:45:27.003Z,11.43
2023-01-29T14:48:09.895Z,12.80
2023-01-29T14:50:47.015Z,12.68
2023-01-29T14:53:17.780Z,11.23
2023-01-29T14:55:46.577Z,12.57
2023-01-29T14:58:16.845Z,12.35
2023-01-29T15:00:45.856Z,13.70
2023-01-29T15:03:15.113Z,13.57
2023-01-29T15:05:43.165Z,13.52
2023-01-29T15:08:16.963Z,13.55
2023-01-29T15:10:46.527Z,12.73
2023-01-29T15:13:18.560Z,12.35
2023-01-29T15:15:48.427Z,11.83
2023-01-29T15:18:18.525Z,12.68
2023-01-29T15:20:46.369Z,11.48
2023-01-29T15:23:26.680Z,12.25
2023-01-29T15:25:56.143Z,11.82
2023-01-29T15:28:25.301Z,11.63
2023-01-29T15:30:54.987Z,12.27
2023-01-29T15:33:22.996Z,11.95
2023-01-29T15:36:06.902Z,11.85
2023-01-29T15:38:37.706Z,12.45
2023-01-29T15:41:17.498Z,13.05
2023-01-29T15:43:47.321Z,12.15
2023-01-29T15:46:20.122Z,11.52
2023-01-29T15:48:48.961Z,12.25
2023-01-29T15:51:18.876Z,12.63
2023-01-29T15:53:49.664Z,11.82
2023-01-29T15:56:19.406Z,11.57
2023-01-29T15:58:49.609Z,12.90
2023-01-29T16:01:18.144Z,13.30
2023-01-29T16:03:47.524Z,14.73
2023-01-29T16:06:15.730Z,13.35
2023-01-29T16:08:45.016Z,11.77
2023-01-29T16:11:12.942Z,11.10
2023-01-29T16:13:43.246Z,11.75
2023-01-29T16:16:21.509Z,11.00
2023-01-29T16:19:00.095Z,11.73
2023-01-29T16:21:31.343Z,11.18
2023-01-29T16:23:59.634Z,12.02
2023-01-29T16:26:28.970Z,13.10
2023-01-29T16:28:57.084Z,11.57
2023-01-29T16:31:28.531Z,13.07
2023-01-29T16:33:57.205Z,11.20
2023-01-29T16:36:26.278Z,13.70
2023-01-29T16:38:55.705Z,14.30
2023-01-29T16:41:31.896Z,12.13
2023-01-29T16:44:00.435Z,13.82
2023-01-29T16:46:34.866Z,13.13
2023-01-29T16:49:03.787Z,13.27
2023-01-29T16:51:32.396Z,12.05
2023-01-29T16:54:01.465Z,13.60
2023-01-29T16:56:30.997Z,12.77
2023-01-29T16:58:59.294Z,12.70
2023-01-29T17:01:28.993Z,12.13
2023-01-29T17:04:08.863Z,12.73
2023-01-29T17:06:37.048Z,13.55
2023-01-29T17:09:05.261Z,13.13
2023-01-29T17:11:35.594Z,13.77
2023-01-29T17:14:04.089Z,13.07
2023-01-29T17:16:32.861Z,13.88
2023-01-29T17:19:01.076Z,15.15
2023-01-29T17:21:30.734Z,13.63
2023-01-29T17:23:58.764Z,14.00
2023-01-29T17:26:26.732Z,12.68
2023-01-29T17:28:55.002Z,13.30
2023-01-29T17:31:22.922Z,12.48
2023-01-29T17:33:50.874Z,13.23
2023-01-29T17:36:18.776Z,12.65
2023-01-29T17:38:48.399Z,13.32
2023-01-29T17:41:19.188Z,13.07
2023-01-29T17:43:47.215Z,12.35
2023-01-29T17:46:15.769Z,13.25
2023-01-29T17:48:43.710Z,11.73
2023-01-29T17:51:13.091Z,13.57
2023-01-29T17:53:45.909Z,13.15
2023-01-29T17:56:20.282Z,11.98
2023-01-29T17:58:48.066Z,12.63
2023-01-29T18:01:15.858Z,13.15
2023-01-29T18:03:43.751Z,13.43
2023-01-29T18:06:13.121Z,12.40
2023-01-29T18:08:40.891Z,12.70
2023-01-29T18:11:10.898Z,12.27
2023-01-29T18:14:13.776Z,13.32
2023-01-29T18:16:45.763Z,11.93
2023-01-29T18:19:14.507Z,12.60
2023-01-29T18:21:42.516Z,12.52
2023-01-29T18:24:10.327Z,11.73
2023-01-29T18:26:38.182Z,12.80
2023-01-29T18:29:06.558Z,16.83
2023-01-29T18:31:34.630Z,12.30
2023-01-29T18:34:03.992Z,15.35
2023-01-29T18:36:31.779Z,13.70
2023-01-29T18:38:59.799Z,13.43
2023-01-29T18:41:27.593Z,13.45
2023-01-29T18:43:55.432Z,14.35
2023-01-29T18:46:24.305Z,13.10
2023-01-29T18:48:52.195Z,13.63
2023-01-29T18:51:21.291Z,13.85
2023-01-29T18:53:50.447Z,15.10
2023-01-29T18:56:18.645Z,13.30
2023-01-29T18:58:52.106Z,13.55
2023-01-29T19:01:23.499Z,13.50
2023-01-29T19:03:52.070Z,13.98
2023-01-29T19:06:21.182Z,12.02
2023-01-29T19:08:49.072Z,14.00
2023-01-29T19:11:16.836Z,12.82
2023-01-29T19:13:45.501Z,14.02
2023-01-29T19:16:14.150Z,14.13
2023-01-29T19:18:41.981Z,14.30
2023-01-29T19:21:10.692Z,14.20
2023-01-29T19:23:40.276Z,15.43
2023-01-29T19:26:08.705Z,12.60
2023-01-29T19:28:36.651Z,15.55
2023-01-29T19:31:04.868Z,15.25
2023-01-29T19:33:32.887Z,14.40
2023-01-29T19:36:00.828Z,15.38
2023-01-29T19:38:29.035Z,15.00
2023-01-29T19:41:00.299Z,14.23
2023-01-29T19:43:30.815Z,16.15
2023-01-29T19:45:59.071Z,15.68
2023-01-29T19:48:27.014Z,15.55
2023-01-29T19:50:55.821Z,15.70
2023-01-29T19:53:24.003Z,16.50
2023-01-29T19:55:59.809Z,14.48
2023-01-29T19:58:27.681Z,14.20
2023-01-29T20:00:56.720Z,16.17
2023-01-29T20:03:24.694Z,14.27
2023-01-29T20:05:53.770Z,15.60
2023-01-29T20:08:22.774Z,16.05
2023-01-29T20:10:50.721Z,22.27
2023-01-29T20:13:19.939Z,16.35
2023-01-29T20:15:48.279Z,15.73
2023-01-29T20:18:16.472Z,16.58
2023-01-29T20:20:44.701Z,14.32
2023-01-29T20:23:12.867Z,15.02
2023-01-29T20:25:40.868Z,13.80
2023-01-29T20:28:09.372Z,15.32
2023-01-29T20:30:39.112Z,14.43
2023-01-29T20:33:07.377Z,13.50
2023-01-29T20:35:36.771Z,14.73
2023-01-29T20:38:05.331Z,15.90
2023-01-29T20:40:33.483Z,14.82
2023-01-29T20:43:01.506Z,15.98
2023-01-29T20:45:30.853Z,14.43
2023-01-29T20:48:00.116Z,14.20
2023-01-29T20:50:27.955Z,14.93
2023-01-29T20:52:56.007Z,16.17
2023-01-29T20:55:23.846Z,15.45
2023-01-29T20:58:05.787Z,14.90
2023-01-29T21:00:34.624Z,15.32
2023-01-29T21:03:04.026Z,15.48
2023-01-29T21:05:32.336Z,16.48
2023-01-29T21:08:00.147Z,16.40
2023-01-29T21:10:27.939Z,15.02
2023-01-29T21:12:56.041Z,16.25
2023-01-29T21:15:26.008Z,17.08
2023-01-29T21:17:54.054Z,15.88
2023-01-29T21:20:23.205Z,16.70
2023-01-29T21:22:51.208Z,16.17
2023-01-29T21:25:20.778Z,15.68
2023-01-29T21:27:48.789Z,15.30
2023-01-29T21:30:18.149Z,15.25
2023-01-29T21:32:46.853Z,15.00
2023-01-29T21:35:14.947Z,17.05
2023-01-29T21:37:44.256Z,17.02
2023-01-29T21:40:12.586Z,17.90
2023-01-29T21:42:58.072Z,16.20
2023-01-29T21:45:25.844Z,16.80
2023-01-29T21:47:53.992Z,16.40
2023-01-29T21:50:21.845Z,15.52
2023-01-29T21:52:50.960Z,16.77
2023-01-29T21:55:18.756Z,16.23
2023-01-29T21:57:47.085Z,16.35
2023-01-29T22:00:15.526Z,14.93
2023-01-29T22:02:44.292Z,17.60
2023-01-29T22:05:19.494Z,16.48
2023-01-29T22:07:47.993Z,17.92
2023-01-29T22:10:18.130Z,15.35
2023-01-29T22:12:46.481Z,15.98
2023-01-29T22:15:14.975Z,14.98
2023-01-29T22:17:43.128Z,15.93
2023-01-29T22:20:11.981Z,17.00
2023-01-29T22:22:40.069Z,15.35
2023-01-29T22:25:08.518Z,15.20
2023-01-29T22:27:37.945Z,17.23
2023-01-29T22:30:06.319Z,15.88
2023-01-29T22:32:34.382Z,16.13
2023-01-29T22:35:02.258Z,16.83
2023-01-29T22:37:30.315Z,17.05
2023-01-29T22:39:58.048Z,15.80
2023-01-29T22:42:25.976Z,16.85
2023-01-29T22:44:55.063Z,16.23
2023-01-29T22:47:23.068Z,15.05
2023-01-29T22:49:52.367Z,16.10
2023-01-29T22:52:21.492Z,16.77
2023-01-29T22:54:49.227Z,14.13
2023-01-29T22:57:17.271Z,14.45
2023-01-29T22:59:45.225Z,14.88
2023-01-29T23:02:14.515Z,13.93
2023-01-29T23:04:42.519Z,15.35
2023-01-29T23:07:11.274Z,14.65
2023-01-29T23:09:39.258Z,14.43
2023-01-29T23:12:07.853Z,15.18
2023-01-29T23:14:35.735Z,13.27
2023-01-29T23:17:03.537Z,13.75
2023-01-29T23:19:32.650Z,14.20
2023-01-29T23:22:00.699Z,15.45
2023-01-29T23:24:28.452Z,16.45
2023-01-29T23:27:14.119Z,13.07
2023-01-29T23:29:42.209Z,13.38
2023-01-29T23:32:10.641Z,14.10
2023-01-29T23:34:39.863Z,13.52
2023-01-29T23:37:08.062Z,14.68
2023-01-29T23:39:36.215Z,15.32
2023-01-29T23:42:03.989Z,14.57
2023-01-29T23:44:31.929Z,13.93
2023-01-29T23:46:59.892Z,14.45
2023-01-29T23:49:28.084Z,14.27
2023-01-29T23:51:57.375Z,13.40
2023-01-29T23:54:25.192Z,14.68
2023-01-29T23:56:53.187Z,14.35
2023-01-29T23:59:21.114Z,14.00
